createdAt,value
2023-03-05T00:00:39.211Z,4.10
2023-03-05T00:03:07.227Z,4.10
2023-03-05T00:05:35.228Z,4.00
2023-03-05T00:08:03.272Z,4.00
2023-03-05T00:10:31.618Z,4.00
2023-03-05T00:13:00.963Z,4.00
2023-03-05T00:15:28.948Z,4.00
2023-03-05T00:17:56.935Z,4.00
2023-03-05T00:20:24.992Z,4.00
2023-03-05T00:22:53.006Z,3.90
2023-03-05T00:25:21.064Z,4.00
2023-03-05T00:27:49.010Z,4.00
2023-03-05T00:30:18.560Z,4.00
2023-03-05T00:32:46.519Z,4.00
2023-03-05T00:35:14.525Z,4.00
2023-03-05T00:37:42.536Z,4.00
2023-03-05T00:40:11.795Z,4.00
2023-03-05T00:42:40.050Z,4.00
2023-03-05T00:45:09.748Z,4.00
2023-03-05T00:47:39.445Z,4.00
2023-03-05T00:50:09.296Z,4.00
2023-03-05T00:52:37.329Z,4.00
2023-03-05T00:55:05.941Z,3.90
2023-03-05T00:57:33.952Z,3.90
2023-03-05T01:00:01.958Z,3.90
2023-03-05T01:02:29.934Z,3.80
2023-03-05T01:04:59.716Z,3.80
2023-03-05T01:07:27.721Z,3.80
2023-03-05T01:09:55.719Z,3.80
2023-03-05T01:12:23.674Z,3.80
2023-03-05T01:14:51.638Z,3.80
2023-03-05T01:17:19.611Z,3.80
2023-03-05T01:19:47.632Z,3.70
2023-03-05T01:22:16.976Z,3.70
2023-03-05T01:24:44.970Z,3.70
2023-03-05T01:27:12.987Z,3.70
2023-03-05T01:29:41.002Z,3.60
2023-03-05T01:32:09.111Z,3.70
2023-03-05T01:34:38.164Z,3.70
2023-03-05T01:37:06.365Z,3.70
2023-03-05T01:39:36.322Z,3.70
2023-03-05T01:42:04.850Z,3.70
2023-03-05T01:44:33.797Z,3.60
2023-03-05T01:47:01.977Z,3.60
2023-03-05T01:49:31.805Z,3.70
2023-03-05T01:52:03.766Z,3.60
2023-03-05T01:54:38.095Z,3.70
2023-03-05T01:57:10.820Z,3.70
2023-03-05T01:59:40.850Z,3.70
2023-03-05T02:02:09.194Z,3.60
2023-03-05T02:04:43.667Z,3.60
2023-03-05T02:07:12.794Z,3.60
2023-03-05T02:09:42.685Z,3.60
2023-03-05T02:12:12.750Z,3.60
2023-03-05T02:14:43.810Z,3.60
2023-03-05T02:17:12.637Z,3.60
2023-03-05T02:19:51.898Z,3.50
2023-03-05T02:22:22.940Z,3.50
2023-03-05T02:24:51.024Z,3.50
2023-03-05T02:27:22.025Z,3.40
2023-03-05T02:29:52.159Z,3.40
2023-03-05T02:32:20.136Z,3.40
2023-03-05T02:34:48.186Z,3.40
2023-03-05T02:37:16.149Z,3.40
2023-03-05T02:39:45.598Z,3.40
2023-03-05T02:42:13.738Z,3.40
2023-03-05T02:44:41.704Z,3.30
2023-03-05T02:47:09.673Z,3.30
2023-03-05T02:49:37.688Z,3.30
2023-03-05T02:52:06.121Z,3.30
2023-03-05T02:54:34.190Z,3.30
2023-03-05T02:57:03.762Z,3.30
2023-03-05T02:59:31.851Z,3.30
2023-03-05T03:01:59.838Z,3.30
2023-03-05T03:04:27.869Z,3.30
2023-03-05T03:06:56.018Z,3.20
2023-03-05T03:09:24.006Z,3.20
2023-03-05T03:11:51.979Z,3.20
2023-03-05T03:14:21.846Z,3.10
2023-03-05T03:16:50.444Z,3.10
2023-03-05T03:19:18.452Z,3.00
2023-03-05T03:21:46.442Z,3.00
2023-03-05T03:24:14.857Z,3.00
2023-03-05T03:26:42.893Z,3.00
2023-03-05T03:29:10.858Z,3.00
2023-03-05T03:31:41.322Z,2.90
2023-03-05T03:34:09.316Z,2.90
2023-03-05T03:36:37.302Z,2.90
2023-03-05T03:39:05.912Z,2.80
2023-03-05T03:41:34.041Z,2.80
2023-03-05T03:44:03.070Z,2.80
2023-03-05T03:46:31.213Z,2.80
2023-03-05T03:49:00.614Z,2.80
2023-03-05T03:51:28.652Z,2.80
2023-03-05T03:53:57.290Z,2.80
2023-03-05T03:56:25.237Z,2.90
2023-03-05T03:58:53.625Z,2.80
2023-03-05T04:01:22.374Z,2.90
2023-03-05T04:03:50.546Z,2.80
2023-03-05T04:06:19.942Z,2.90
2023-03-05T04:08:47.942Z,2.90
2023-03-05T04:11:16.033Z,2.90
2023-03-05T04:13:43.998Z,2.80
2023-03-05T04:16:11.994Z,2.80
2023-03-05T04:18:40.018Z,2.80
2023-03-05T04:21:08.088Z,2.90
2023-03-05T04:23:37.566Z,2.80
2023-03-05T04:26:05.895Z,2.80
2023-03-05T04:28:34.269Z,2.80
2023-03-05T04:31:03.593Z,2.80
2023-03-05T04:33:31.718Z,2.80
2023-03-05T04:35:59.766Z,2.80
2023-03-05T04:38:27.810Z,2.80
2023-03-05T04:40:57.144Z,2.80
2023-03-05T04:43:25.140Z,2.80
2023-03-05T04:45:53.134Z,2.80
2023-03-05T04:48:21.120Z,2.70
2023-03-05T04:50:49.076Z,2.70
2023-03-05T04:53:17.256Z,2.70
2023-03-05T04:55:45.218Z,2.70
2023-03-05T04:58:14.643Z,2.60
2023-03-05T05:00:42.652Z,2.60
2023-03-05T05:03:10.664Z,2.60
2023-03-05T05:05:38.667Z,2.50
2023-03-05T05:08:06.959Z,2.50
2023-03-05T05:10:34.966Z,2.50
2023-03-05T05:13:03.005Z,2.50
2023-03-05T05:15:33.095Z,2.40
2023-03-05T05:18:01.066Z,2.50
2023-03-05T05:20:29.253Z,2.40
2023-03-05T05:22:57.271Z,2.40
2023-03-05T05:25:25.255Z,2.40
2023-03-05T05:27:53.216Z,2.40
2023-03-05T05:30:21.239Z,2.40
2023-03-05T05:32:50.600Z,2.30
2023-03-05T05:35:18.703Z,2.30
2023-03-05T05:37:46.761Z,2.30
2023-03-05T05:40:15.492Z,2.30
2023-03-05T05:42:44.504Z,2.30
2023-03-05T05:45:13.341Z,2.30
2023-03-05T05:47:41.424Z,2.30
2023-03-05T05:50:12.903Z,2.30
2023-03-05T05:52:40.909Z,2.30
2023-03-05T05:55:09.947Z,2.30
2023-03-05T05:57:38.022Z,2.40
2023-03-05T06:00:09.296Z,2.40
2023-03-05T06:02:40.006Z,2.40
2023-03-05T06:05:12.781Z,2.40
2023-03-05T06:07:40.827Z,2.40
2023-03-05T06:10:10.946Z,2.40
2023-03-05T06:12:38.957Z,2.40
2023-03-05T06:15:08.245Z,2.50
2023-03-05T06:17:36.461Z,2.50
2023-03-05T06:20:05.288Z,2.50
2023-03-05T06:22:37.278Z,2.50
2023-03-05T06:25:05.700Z,2.60
2023-03-05T06:27:33.733Z,2.60
2023-03-05T06:30:02.024Z,2.60
2023-03-05T06:32:30.132Z,2.60
2023-03-05T06:34:58.238Z,2.70
2023-03-05T06:37:26.225Z,2.60
2023-03-05T06:39:55.631Z,2.70
2023-03-05T06:42:23.686Z,2.70
2023-03-05T06:44:51.666Z,2.70
2023-03-05T06:47:19.690Z,2.70
2023-03-05T06:49:47.694Z,2.70
2023-03-05T06:52:16.136Z,2.70
2023-03-05T06:54:44.205Z,2.80
2023-03-05T06:57:13.772Z,2.80
2023-03-05T06:59:41.785Z,2.90
2023-03-05T07:02:12.171Z,2.90
2023-03-05T07:04:40.305Z,2.90
2023-03-05T07:07:08.391Z,2.90
2023-03-05T07:09:42.799Z,3.00
2023-03-05T07:12:11.741Z,3.00
2023-03-05T07:14:41.124Z,3.00
2023-03-05T07:17:09.280Z,3.10
2023-03-05T07:19:37.379Z,3.10
2023-03-05T07:22:05.473Z,3.10
2023-03-05T07:24:33.431Z,3.10
2023-03-05T07:27:01.568Z,3.10
2023-03-05T07:29:30.219Z,3.10
2023-03-05T07:31:59.624Z,3.10
2023-03-05T07:34:27.734Z,3.10
2023-03-05T07:36:55.944Z,3.20
2023-03-05T07:39:23.975Z,3.20
2023-03-05T07:41:52.782Z,3.10
2023-03-05T07:44:20.938Z,3.20
2023-03-05T07:46:49.053Z,3.20
2023-03-05T07:49:18.511Z,3.30
2023-03-05T07:51:46.543Z,3.30
2023-03-05T07:54:14.564Z,3.30
2023-03-05T07:56:42.594Z,3.20
2023-03-05T07:59:13.831Z,3.20
2023-03-05T08:01:41.974Z,3.20
2023-03-05T08:04:10.934Z,3.30
2023-03-05T08:06:42.327Z,3.20
2023-03-05T08:09:10.577Z,3.20
2023-03-05T08:11:38.551Z,3.20
2023-03-05T08:14:06.578Z,3.20
2023-03-05T08:16:34.608Z,3.30
2023-03-05T08:19:02.948Z,3.40
2023-03-05T08:21:33.709Z,3.60
2023-03-05T08:24:04.740Z,3.70
2023-03-05T08:26:37.708Z,3.70
2023-03-05T08:29:06.299Z,3.80
2023-03-05T08:31:34.892Z,3.80
2023-03-05T08:34:03.675Z,3.80
2023-03-05T08:36:31.794Z,3.80
2023-03-05T08:39:00.448Z,3.90
2023-03-05T08:41:30.505Z,4.10
2023-03-05T08:43:58.694Z,4.20
2023-03-05T08:46:26.816Z,4.50
2023-03-05T08:48:54.927Z,4.40
2023-03-05T08:51:25.988Z,4.50
2023-03-05T08:53:54.988Z,4.60
2023-03-05T08:56:23.085Z,4.60
2023-03-05T08:58:53.060Z,4.50
2023-03-05T09:01:22.548Z,4.50
2023-03-05T09:03:50.961Z,4.50
2023-03-05T09:06:19.106Z,4.60
2023-03-05T09:08:47.127Z,4.50
2023-03-05T09:11:15.491Z,4.40
2023-03-05T09:13:43.541Z,4.40
2023-03-05T09:16:15.107Z,4.40
2023-03-05T09:18:44.041Z,4.50
2023-03-05T09:21:13.292Z,4.40
2023-03-05T09:23:42.218Z,4.30
2023-03-05T09:26:12.045Z,4.30
2023-03-05T09:28:40.586Z,4.30
2023-03-05T09:31:10.190Z,4.40
2023-03-05T09:33:39.943Z,4.50
2023-03-05T09:36:22.269Z,4.60
2023-03-05T09:38:51.040Z,4.60
2023-03-05T09:41:31.035Z,4.80
2023-03-05T09:44:08.869Z,4.90
2023-03-05T09:46:46.374Z,5.10
2023-03-05T09:49:22.340Z,5.10
2023-03-05T09:51:56.728Z,5.20
2023-03-05T09:54:30.400Z,5.30
2023-03-05T09:57:04.403Z,5.40
2023-03-05T09:59:38.435Z,5.50
2023-03-05T10:02:13.620Z,5.70
2023-03-05T10:04:49.572Z,5.70
2023-03-05T10:07:22.255Z,5.80
2023-03-05T10:09:56.164Z,5.90
2023-03-05T10:12:32.697Z,6.00
2023-03-05T10:15:05.602Z,5.90
2023-03-05T10:17:53.201Z,5.90
2023-03-05T10:20:59.954Z,5.80
2023-03-05T10:23:38.603Z,5.90
2023-03-05T10:26:29.982Z,5.90
2023-03-05T10:29:12.750Z,6.00
2023-03-05T10:31:53.452Z,6.00
2023-03-05T10:35:03.210Z,5.90
2023-03-05T10:38:15.125Z,5.90
2023-03-05T10:40:47.047Z,6.00
2023-03-05T10:43:24.816Z,6.10
2023-03-05T10:45:55.219Z,6.00
2023-03-05T10:48:29.736Z,5.90
2023-03-05T10:51:02.633Z,5.80
2023-03-05T10:53:35.033Z,5.80
2023-03-05T10:56:04.716Z,5.90
2023-03-05T10:58:33.707Z,6.00
2023-03-05T11:01:05.967Z,5.90
2023-03-05T11:03:52.819Z,6.00
2023-03-05T11:06:38.112Z,5.80
2023-03-05T11:09:27.907Z,5.70
2023-03-05T11:12:14.185Z,5.70
2023-03-05T11:14:44.034Z,5.70
2023-03-05T11:17:30.685Z,5.80
2023-03-05T11:20:20.158Z,5.90
2023-03-05T11:23:04.681Z,5.90
2023-03-05T11:25:35.100Z,5.90
2023-03-05T11:28:04.687Z,5.90
2023-03-05T11:30:35.302Z,5.90
2023-03-05T11:33:10.669Z,5.90
2023-03-05T11:35:42.021Z,5.90
2023-03-05T11:38:24.553Z,5.90
2023-03-05T11:40:56.475Z,5.90
2023-03-05T11:43:26.136Z,5.90
2023-03-05T11:45:59.734Z,5.80
2023-03-05T11:48:33.008Z,5.60
2023-03-05T11:51:03.653Z,5.60
2023-03-05T11:53:36.052Z,5.60
2023-03-05T11:56:17.472Z,5.60
2023-03-05T11:58:52.392Z,5.60
2023-03-05T12:01:23.366Z,5.60
2023-03-05T12:03:52.826Z,5.50
2023-03-05T12:06:29.549Z,5.50
2023-03-05T12:09:01.265Z,5.50
2023-03-05T12:11:32.814Z,5.50
2023-03-05T12:14:06.979Z,5.40
2023-03-05T12:16:40.458Z,5.50
2023-03-05T12:19:40.499Z,5.50
2023-03-05T12:22:18.178Z,5.60
2023-03-05T12:24:46.222Z,5.60
2023-03-05T12:27:35.093Z,5.70
2023-03-05T12:30:04.014Z,5.80
2023-03-05T12:32:53.730Z,5.80
2023-03-05T12:35:26.893Z,5.80
2023-03-05T12:38:17.191Z,5.80
2023-03-05T12:40:52.355Z,5.70
2023-03-05T12:43:32.540Z,5.80
2023-03-05T12:46:26.064Z,5.80
2023-03-05T12:48:54.195Z,5.80
2023-03-05T12:51:37.706Z,5.80
2023-03-05T12:54:31.279Z,5.70
2023-03-05T12:57:01.096Z,5.60
2023-03-05T12:59:44.030Z,5.70
2023-03-05T13:02:29.498Z,5.70
2023-03-05T13:05:01.798Z,5.80
2023-03-05T13:07:29.840Z,5.70
2023-03-05T13:09:59.731Z,5.70
2023-03-05T13:12:29.931Z,5.60
2023-03-05T13:15:03.355Z,5.60
2023-03-05T13:17:39.193Z,5.50
2023-03-05T13:20:27.092Z,5.50
2023-03-05T13:23:20.607Z,5.50
2023-03-05T13:26:03.671Z,5.40
2023-03-05T13:28:32.560Z,5.40
2023-03-05T13:31:05.458Z,5.40
2023-03-05T13:33:35.634Z,5.50
2023-03-05T13:36:05.071Z,5.60
2023-03-05T13:38:37.707Z,5.60
2023-03-05T13:41:09.506Z,5.60
2023-03-05T13:43:44.303Z,5.60
2023-03-05T13:46:14.264Z,5.50
2023-03-05T13:48:42.459Z,5.50
2023-03-05T13:51:11.955Z,5.40
2023-03-05T13:53:40.055Z,5.50
2023-03-05T13:56:13.086Z,5.60
2023-03-05T13:58:52.149Z,5.60
2023-03-05T14:01:29.142Z,5.60
2023-03-05T14:03:58.962Z,5.80
2023-03-05T14:06:30.862Z,5.90
2023-03-05T14:09:05.634Z,5.90
2023-03-05T14:11:33.876Z,5.80
2023-03-05T14:14:10.770Z,6.00
2023-03-05T14:16:40.246Z,6.10
2023-03-05T14:19:10.379Z,6.10
2023-03-05T14:21:47.396Z,6.10
2023-03-05T14:24:21.843Z,6.00
2023-03-05T14:26:52.485Z,5.80
2023-03-05T14:29:24.299Z,5.60
2023-03-05T14:31:56.397Z,5.50
2023-03-05T14:34:28.015Z,5.40
2023-03-05T14:36:59.513Z,5.20
2023-03-05T14:39:33.849Z,5.10
2023-03-05T14:42:30.794Z,4.90
2023-03-05T14:45:00.732Z,4.80
2023-03-05T14:47:30.203Z,4.70
2023-03-05T14:49:58.195Z,4.70
2023-03-05T14:52:28.215Z,4.60
2023-03-05T14:54:56.313Z,4.60
2023-03-05T14:57:27.636Z,4.60
2023-03-05T14:59:55.919Z,4.50
2023-03-05T15:02:25.692Z,4.40
2023-03-05T15:04:55.123Z,4.40
2023-03-05T15:07:29.287Z,4.40
2023-03-05T15:09:57.584Z,4.40
2023-03-05T15:12:25.867Z,4.50
2023-03-05T15:14:54.781Z,4.50
2023-03-05T15:17:24.887Z,4.50
2023-03-05T15:19:54.797Z,4.60
2023-03-05T15:22:22.817Z,4.50
2023-03-05T15:24:50.894Z,4.50
2023-03-05T15:27:18.978Z,4.50
2023-03-05T15:29:46.994Z,4.50
2023-03-05T15:32:15.093Z,4.50
2023-03-05T15:34:43.298Z,4.50
2023-03-05T15:37:13.250Z,4.50
2023-03-05T15:39:41.279Z,4.50
2023-03-05T15:42:09.323Z,4.50
2023-03-05T15:44:39.261Z,4.50
2023-03-05T15:47:07.366Z,4.50
2023-03-05T15:49:35.440Z,4.50
2023-03-05T15:52:03.726Z,4.40
2023-03-05T15:54:33.205Z,4.40
2023-03-05T15:57:01.264Z,4.40
2023-03-05T15:59:29.295Z,4.40
2023-03-05T16:01:57.337Z,4.30
2023-03-05T16:04:25.446Z,4.30
2023-03-05T16:06:53.440Z,4.20
2023-03-05T16:09:23.007Z,4.20
2023-03-05T16:11:52.471Z,3.90
2023-03-05T16:14:24.314Z,3.80
2023-03-05T16:16:54.451Z,3.70
2023-03-05T16:19:24.076Z,3.60
2023-03-05T16:21:52.042Z,3.40
2023-03-05T16:24:20.035Z,3.40
2023-03-05T16:26:48.003Z,3.40
2023-03-05T16:29:17.430Z,3.30
2023-03-05T16:31:46.757Z,3.40
2023-03-05T16:34:16.274Z,3.40
2023-03-05T16:36:50.841Z,3.40
2023-03-05T16:39:19.382Z,3.40
2023-03-05T16:41:47.432Z,3.50
2023-03-05T16:44:16.813Z,3.50
2023-03-05T16:46:49.139Z,3.50
2023-03-05T16:49:17.909Z,3.60
2023-03-05T16:51:45.899Z,3.60
2023-03-05T16:54:14.005Z,3.60
2023-03-05T16:56:41.988Z,3.50
2023-03-05T16:59:10.198Z,3.40
2023-03-05T17:01:39.600Z,3.30
2023-03-05T17:04:07.625Z,3.30
2023-03-05T17:06:35.719Z,3.30
2023-03-05T17:09:04.141Z,3.30
2023-03-05T17:11:32.277Z,3.40
2023-03-05T17:14:00.301Z,3.30
2023-03-05T17:16:28.352Z,3.20
2023-03-05T17:18:57.819Z,3.10
2023-03-05T17:21:25.957Z,3.10
2023-03-05T17:23:54.565Z,3.00
2023-03-05T17:26:25.643Z,3.00
2023-03-05T17:28:54.499Z,3.00
2023-03-05T17:31:22.632Z,3.10
2023-03-05T17:33:50.836Z,3.20
2023-03-05T17:36:21.506Z,3.20
2023-03-05T17:38:50.633Z,3.20
2023-03-05T17:41:20.331Z,3.20
2023-03-05T17:43:48.439Z,3.20
2023-03-05T17:46:16.948Z,3.10
2023-03-05T17:48:45.023Z,3.20
2023-03-05T17:51:14.520Z,3.20
2023-03-05T17:53:44.329Z,3.30
2023-03-05T17:56:14.126Z,3.20
2023-03-05T17:58:42.380Z,3.10
2023-03-05T18:01:10.568Z,3.10
2023-03-05T18:03:38.861Z,3.10
2023-03-05T18:06:07.371Z,3.20
2023-03-05T18:08:35.329Z,3.20
2023-03-05T18:11:04.675Z,3.20
2023-03-05T18:13:32.622Z,3.30
2023-03-05T18:16:01.269Z,3.30
2023-03-05T18:18:29.353Z,3.30
2023-03-05T18:20:57.399Z,3.40
2023-03-05T18:23:25.381Z,3.40
2023-03-05T18:25:53.391Z,3.40
2023-03-05T18:28:22.691Z,3.40
2023-03-05T18:30:50.740Z,3.50
2023-03-05T18:33:20.570Z,3.50
2023-03-05T18:35:51.965Z,3.50
2023-03-05T18:38:20.499Z,3.40
2023-03-05T18:40:51.191Z,3.30
2023-03-05T18:43:20.420Z,3.40
2023-03-05T18:45:50.998Z,3.30
2023-03-05T18:48:19.509Z,3.30
2023-03-05T18:50:49.879Z,3.30
2023-03-05T18:53:18.212Z,3.30
2023-03-05T18:55:46.242Z,3.30
2023-03-05T18:58:15.403Z,3.30
2023-03-05T19:00:44.868Z,3.30
2023-03-05T19:03:15.132Z,3.30
2023-03-05T19:05:43.546Z,3.30
2023-03-05T19:08:12.212Z,3.40
2023-03-05T19:10:40.688Z,3.40
2023-03-05T19:13:18.693Z,3.40
2023-03-05T19:15:46.720Z,3.30
2023-03-05T19:18:16.111Z,3.30
2023-03-05T19:20:44.060Z,3.30
2023-03-05T19:23:11.993Z,3.30
2023-03-05T19:25:42.121Z,3.30
2023-03-05T19:28:10.059Z,3.30
2023-03-05T19:30:38.639Z,3.30
2023-03-05T19:33:06.599Z,3.30
2023-03-05T19:35:36.003Z,3.30
2023-03-05T19:38:03.998Z,3.30
2023-03-05T19:40:31.997Z,3.30
2023-03-05T19:43:00.010Z,3.30
2023-03-05T19:45:27.972Z,3.30
2023-03-05T19:47:55.928Z,3.20
2023-03-05T19:50:24.085Z,3.20
2023-03-05T19:52:53.410Z,3.20
2023-03-05T19:55:21.736Z,3.20
2023-03-05T19:57:49.795Z,3.20
2023-03-05T20:00:18.578Z,3.20
2023-03-05T20:02:48.890Z,3.20
2023-03-05T20:05:16.869Z,3.30
2023-03-05T20:07:44.821Z,3.30
2023-03-05T20:10:14.519Z,3.30
2023-03-05T20:12:44.003Z,3.30
2023-03-05T20:15:12.072Z,3.30
2023-03-05T20:17:40.041Z,3.30
2023-03-05T20:20:09.347Z,3.30
2023-03-05T20:22:37.330Z,3.30
2023-03-05T20:25:06.828Z,3.30
2023-03-05T20:27:36.305Z,3.20
2023-03-05T20:30:06.190Z,3.20
2023-03-05T20:32:34.380Z,3.30
2023-03-05T20:35:02.496Z,3.30
2023-03-05T20:37:39.859Z,3.30
2023-03-05T20:40:09.555Z,3.30
2023-03-05T20:42:38.901Z,3.30
2023-03-05T20:45:07.970Z,3.30
2023-03-05T20:47:40.656Z,3.30
2023-03-05T20:50:10.738Z,3.30
2023-03-05T20:52:39.690Z,3.30
2023-03-05T20:55:14.220Z,3.30
2023-03-05T20:57:46.854Z,3.30
2023-03-05T21:00:17.654Z,3.30
2023-03-05T21:02:45.751Z,3.30
2023-03-05T21:05:29.167Z,3.30
2023-03-05T21:07:57.661Z,3.30
2023-03-05T21:10:25.677Z,3.30
2023-03-05T21:12:55.839Z,3.30
2023-03-05T21:15:28.086Z,3.30
2023-03-05T21:17:56.150Z,3.30
2023-03-05T21:20:28.098Z,3.30
2023-03-05T21:22:56.546Z,3.30
2023-03-05T21:25:27.545Z,3.30
2023-03-05T21:27:58.654Z,3.30
2023-03-05T21:30:31.427Z,3.30
2023-03-05T21:33:00.602Z,3.30
2023-03-05T21:35:29.405Z,3.30
2023-03-05T21:37:57.415Z,3.30
2023-03-05T21:40:25.808Z,3.30
2023-03-05T21:42:54.350Z,3.30
2023-03-05T21:45:26.286Z,3.30
2023-03-05T21:47:56.005Z,3.30
2023-03-05T21:50:25.639Z,3.30
2023-03-05T21:52:53.957Z,3.30
2023-03-05T21:55:24.971Z,3.30
2023-03-05T21:57:52.991Z,3.30
2023-03-05T22:00:23.910Z,3.30
2023-03-05T22:02:52.153Z,3.30
2023-03-05T22:05:20.717Z,3.30
2023-03-05T22:07:48.763Z,3.30
2023-03-05T22:10:19.193Z,3.30
2023-03-05T22:12:53.188Z,3.30
2023-03-05T22:15:23.055Z,3.30
2023-03-05T22:17:51.061Z,3.20
2023-03-05T22:20:19.643Z,3.20
2023-03-05T22:22:47.925Z,3.10
2023-03-05T22:25:16.534Z,3.10
2023-03-05T22:27:46.433Z,3.10
2023-03-05T22:30:15.337Z,3.00
2023-03-05T22:32:44.695Z,3.10
2023-03-05T22:35:14.955Z,3.10
2023-03-05T22:37:43.505Z,3.10
2023-03-05T22:40:15.935Z,3.10
2023-03-05T22:42:44.806Z,3.10
2023-03-05T22:45:13.320Z,3.10
2023-03-05T22:47:41.293Z,3.10
2023-03-05T22:50:12.188Z,3.10
2023-03-05T22:52:40.156Z,3.10
2023-03-05T22:55:08.846Z,3.10
2023-03-05T22:57:36.801Z,3.10
2023-03-05T23:00:07.457Z,3.10
2023-03-05T23:02:35.576Z,3.10
2023-03-05T23:05:03.539Z,3.10
2023-03-05T23:07:34.329Z,3.10
2023-03-05T23:10:04.302Z,3.10
2023-03-05T23:12:34.478Z,3.10
2023-03-05T23:15:03.243Z,3.10
2023-03-05T23:17:31.205Z,3.10
2023-03-05T23:19:59.192Z,3.10
2023-03-05T23:22:27.192Z,3.10
2023-03-05T23:24:56.507Z,3.10
2023-03-05T23:27:24.452Z,3.00
2023-03-05T23:30:04.469Z,3.00
2023-03-05T23:32:32.567Z,3.00
2023-03-05T23:35:00.585Z,3.00
2023-03-05T23:37:28.639Z,3.00
2023-03-05T23:39:58.187Z,3.10
2023-03-05T23:42:26.453Z,3.00
2023-03-05T23:44:55.895Z,3.10
2023-03-05T23:47:24.086Z,3.00
2023-03-05T23:49:53.906Z,3.10
2023-03-05T23:52:22.052Z,3.00
2023-03-05T23:54:50.499Z,3.00
2023-03-05T23:57:20.138Z,3.00
2023-03-05T23:59:48.336Z,3.00
